createdAt,value
2022-09-06T00:02:45.282Z,21.29
2022-09-06T00:07:47.173Z,21.20
2022-09-06T00:12:49.218Z,21.12
2022-09-06T00:17:51.692Z,21.08
2022-09-06T00:22:58.399Z,21.06
2022-09-06T00:28:02.686Z,20.86
2022-09-06T00:33:04.577Z,20.68
2022-09-06T00:38:06.414Z,20.56
2022-09-06T00:43:08.245Z,20.51
2022-09-06T00:48:10.141Z,20.42
2022-09-06T00:53:12.097Z,20.41
2022-09-06T00:58:13.910Z,20.32
2022-09-06T01:03:15.915Z,20.29
2022-09-06T01:08:24.761Z,20.28
2022-09-06T01:13:59.307Z,20.18
2022-09-06T01:19:25.657Z,20.15
2022-09-06T01:24:45.737Z,20.12
2022-09-06T01:30:02.448Z,19.99
2022-09-06T01:35:08.901Z,20.05
2022-09-06T01:40:11.154Z,20.02
2022-09-06T01:45:16.545Z,19.86
2022-09-06T01:50:44.912Z,19.92
2022-09-06T01:56:08.933Z,19.84
2022-09-06T02:01:22.347Z,19.86
2022-09-06T02:06:28.503Z,19.72
2022-09-06T02:11:35.908Z,19.72
2022-09-06T02:16:39.978Z,19.64
2022-09-06T02:21:45.401Z,19.55
2022-09-06T02:26:47.894Z,19.50
2022-09-06T02:31:53.600Z,19.41
2022-09-06T02:36:55.679Z,19.32
2022-09-06T02:41:58.130Z,19.29
2022-09-06T02:47:01.401Z,19.38
2022-09-06T02:52:03.483Z,19.30
2022-09-06T02:57:05.320Z,19.23
2022-09-06T03:02:08.045Z,19.09
2022-09-06T03:07:10.021Z,19.08
2022-09-06T03:12:11.878Z,19.00
2022-09-06T03:17:13.716Z,18.92
2022-09-06T03:22:15.581Z,18.95
2022-09-06T03:27:17.583Z,18.93
2022-09-06T03:32:19.462Z,18.88
2022-09-06T03:37:21.272Z,18.89
2022-09-06T03:42:23.481Z,18.84
2022-09-06T03:47:25.412Z,18.74
2022-09-06T03:52:27.196Z,18.63
2022-09-06T03:57:29.349Z,18.54
2022-09-06T04:02:31.195Z,18.55
2022-09-06T04:07:33.011Z,18.50
2022-09-06T04:12:35.065Z,18.32
2022-09-06T04:17:37.039Z,18.26
2022-09-06T04:22:39.052Z,18.16
2022-09-06T04:27:40.865Z,17.93
2022-09-06T04:32:42.759Z,17.91
2022-09-06T04:37:44.596Z,17.88
2022-09-06T04:42:46.581Z,17.95
2022-09-06T04:47:48.480Z,17.94
2022-09-06T04:52:50.411Z,17.85
2022-09-06T04:57:52.926Z,17.88
2022-09-06T05:02:54.825Z,17.86
2022-09-06T05:07:57.225Z,17.80
2022-09-06T05:12:59.201Z,17.81
2022-09-06T05:18:04.991Z,17.83
2022-09-06T05:23:06.969Z,17.86
2022-09-06T05:28:09.051Z,17.85
2022-09-06T05:33:14.937Z,17.92
2022-09-06T05:38:17.130Z,17.81
2022-09-06T05:43:19.277Z,17.79
2022-09-06T05:48:21.667Z,17.80
2022-09-06T05:53:23.875Z,17.78
2022-09-06T05:58:25.832Z,17.72
2022-09-06T06:03:27.888Z,17.65
2022-09-06T06:08:29.949Z,17.70
2022-09-06T06:13:35.200Z,17.72
2022-09-06T06:18:37.432Z,17.73
2022-09-06T06:23:40.684Z,17.81
2022-09-06T06:28:42.996Z,17.86
2022-09-06T06:33:45.062Z,17.82
2022-09-06T06:38:47.938Z,17.81
2022-09-06T06:43:57.924Z,17.71
2022-09-06T06:49:00.542Z,17.75
2022-09-06T06:54:02.734Z,17.78
2022-09-06T06:59:06.633Z,17.66
2022-09-06T07:04:10.766Z,17.55
2022-09-06T07:09:12.827Z,17.59
2022-09-06T07:14:16.157Z,17.61
2022-09-06T07:24:39.864Z,17.93
2022-09-06T07:29:41.705Z,18.03
2022-09-06T07:34:43.570Z,18.15
2022-09-06T07:39:45.389Z,18.31
2022-09-06T07:44:47.170Z,18.51
2022-09-06T07:55:11.112Z,18.80
2022-09-06T08:00:13.148Z,18.87
2022-09-06T08:10:37.071Z,19.17
2022-09-06T08:15:41.608Z,19.32
2022-09-06T08:20:43.787Z,19.62
2022-09-06T08:25:45.611Z,19.92
2022-09-06T08:30:47.399Z,20.21
2022-09-06T08:35:56.696Z,20.50
2022-09-06T08:41:11.703Z,20.88
2022-09-06T08:46:13.567Z,21.35
2022-09-06T08:51:38.604Z,22.00
2022-09-06T08:56:52.966Z,23.24
2022-09-06T09:02:01.958Z,24.46
2022-09-06T09:07:07.783Z,25.56
2022-09-06T09:12:12.952Z,26.18
2022-09-06T09:17:22.407Z,26.80
2022-09-06T09:22:25.427Z,27.29
2022-09-06T09:27:28.752Z,28.08
2022-09-06T09:32:33.762Z,28.42
2022-09-06T09:37:54.673Z,28.65
2022-09-06T09:43:10.830Z,28.94
2022-09-06T09:48:27.450Z,28.81
2022-09-06T09:53:29.661Z,29.30
2022-09-06T09:58:36.106Z,29.36
2022-09-06T10:09:18.505Z,29.89
2022-09-06T10:14:41.241Z,29.77
2022-09-06T10:19:47.389Z,30.06
2022-09-06T10:25:10.606Z,30.19
2022-09-06T10:30:14.751Z,29.88
2022-09-06T10:35:27.061Z,30.35
2022-09-06T10:40:48.266Z,30.55
2022-09-06T10:46:15.410Z,30.88
2022-09-06T10:51:36.785Z,30.93
2022-09-06T10:56:44.401Z,30.83
2022-09-06T11:02:25.277Z,30.81
2022-09-06T11:07:31.671Z,30.94
2022-09-06T11:12:51.970Z,31.13
2022-09-06T11:18:18.610Z,31.29
2022-09-06T11:23:48.500Z,31.02
2022-09-06T11:28:55.807Z,31.33
2022-09-06T11:34:02.352Z,31.24
2022-09-06T11:39:07.022Z,30.53
2022-09-06T11:44:10.112Z,30.08
2022-09-06T11:49:32.027Z,30.08
2022-09-06T11:54:43.510Z,29.90
2022-09-06T11:59:49.913Z,29.57
2022-09-06T12:05:07.114Z,29.11
2022-09-06T12:10:29.126Z,28.95
2022-09-06T12:15:40.551Z,28.62
2022-09-06T12:20:48.671Z,28.63
2022-09-06T12:25:54.845Z,28.42
2022-09-06T12:30:56.702Z,28.43
2022-09-06T12:36:19.760Z,28.48
2022-09-06T12:41:22.640Z,28.45
2022-09-06T12:46:25.704Z,28.40
2022-09-06T12:51:27.799Z,28.21
2022-09-06T12:56:31.122Z,27.98
2022-09-06T13:01:34.920Z,28.22
2022-09-06T13:06:42.576Z,28.25
2022-09-06T13:11:46.568Z,28.39
2022-09-06T13:16:50.846Z,28.45
2022-09-06T13:21:52.730Z,28.25
2022-09-06T13:26:54.766Z,28.85
2022-09-06T13:31:58.431Z,28.62
2022-09-06T13:37:09.321Z,28.59
2022-09-06T13:42:24.131Z,28.70
2022-09-06T13:47:29.785Z,28.35
2022-09-06T13:52:32.222Z,28.87
2022-09-06T13:57:34.197Z,28.50
2022-09-06T14:02:36.214Z,28.45
2022-09-06T14:07:38.195Z,28.56
2022-09-06T14:12:40.007Z,28.49
2022-09-06T14:17:42.059Z,28.50
2022-09-06T14:22:43.959Z,28.37
2022-09-06T14:27:48.691Z,28.35
2022-09-06T14:32:51.053Z,28.26
2022-09-06T14:37:52.956Z,28.35
2022-09-06T14:42:54.840Z,28.47
2022-09-06T14:47:57.138Z,28.35
2022-09-06T14:52:59.456Z,28.42
2022-09-06T14:58:01.431Z,28.49
2022-09-06T15:03:03.319Z,28.48
2022-09-06T15:08:05.507Z,28.32
2022-09-06T15:13:08.178Z,28.40
2022-09-06T15:18:10.077Z,28.39
2022-09-06T15:23:24.921Z,28.50
2022-09-06T15:28:27.719Z,28.41
2022-09-06T15:33:33.626Z,28.43
2022-09-06T15:38:38.680Z,28.33
2022-09-06T15:43:42.764Z,28.23
2022-09-06T15:48:46.567Z,28.15
2022-09-06T15:53:48.515Z,28.24
2022-09-06T15:58:50.398Z,28.25
2022-09-06T16:03:54.502Z,28.10
2022-09-06T16:08:59.323Z,28.10
2022-09-06T16:14:01.157Z,28.13
2022-09-06T16:19:03.306Z,28.24
2022-09-06T16:24:08.016Z,28.06
2022-09-06T16:29:14.294Z,28.00
2022-09-06T16:34:16.628Z,27.95
2022-09-06T16:39:18.574Z,27.93
2022-09-06T16:44:20.457Z,27.78
2022-09-06T16:49:23.665Z,27.72
2022-09-06T16:54:25.584Z,27.63
2022-09-06T16:59:27.528Z,27.54
2022-09-06T17:04:29.329Z,27.49
2022-09-06T17:09:34.546Z,27.42
2022-09-06T17:14:37.075Z,27.31
2022-09-06T17:19:41.437Z,27.23
2022-09-06T17:24:44.862Z,27.08
2022-09-06T17:29:46.613Z,27.05
2022-09-06T17:34:48.343Z,27.03
2022-09-06T17:39:50.270Z,26.79
2022-09-06T17:44:52.189Z,26.65
2022-09-06T17:49:54.704Z,26.48
2022-09-06T17:54:56.794Z,26.42
2022-09-06T17:59:58.678Z,26.28
2022-09-06T18:05:00.551Z,26.21
2022-09-06T18:10:02.443Z,26.06
2022-09-06T18:15:04.791Z,25.91
2022-09-06T18:20:07.467Z,25.77
2022-09-06T18:25:09.646Z,25.75
2022-09-06T18:30:14.860Z,25.70
2022-09-06T18:35:17.029Z,25.63
2022-09-06T18:40:18.831Z,25.52
2022-09-06T18:45:20.911Z,25.38
2022-09-06T18:50:22.912Z,25.32
2022-09-06T18:55:24.863Z,25.25
2022-09-06T19:00:26.651Z,25.18
2022-09-06T19:05:28.587Z,25.07
2022-09-06T19:10:30.775Z,24.91
2022-09-06T19:15:32.719Z,24.80
2022-09-06T19:20:34.657Z,24.81
2022-09-06T19:25:37.428Z,24.78
2022-09-06T19:30:39.266Z,24.70
2022-09-06T19:35:55.924Z,24.67
2022-09-06T19:41:11.004Z,24.68
2022-09-06T19:46:15.204Z,24.60
2022-09-06T19:51:20.224Z,24.51
2022-09-06T19:56:25.381Z,24.45
2022-09-06T20:01:29.599Z,24.45
2022-09-06T20:06:31.642Z,24.30
2022-09-06T20:11:35.166Z,24.21
2022-09-06T20:16:41.418Z,24.23
2022-09-06T20:21:43.994Z,24.12
2022-09-06T20:26:45.829Z,24.00
2022-09-06T20:31:47.905Z,23.99
2022-09-06T20:36:49.804Z,23.92
2022-09-06T20:41:51.734Z,23.80
2022-09-06T20:46:53.660Z,23.80
2022-09-06T20:51:55.534Z,23.71
2022-09-06T20:56:59.423Z,23.61
2022-09-06T21:02:01.700Z,23.61
2022-09-06T21:07:03.661Z,23.47
2022-09-06T21:12:05.734Z,23.45
2022-09-06T21:17:07.549Z,23.39
2022-09-06T21:22:09.927Z,23.35
2022-09-06T21:27:12.198Z,23.26
2022-09-06T21:32:14.080Z,23.28
2022-09-06T21:37:15.962Z,23.17
2022-09-06T21:42:18.654Z,23.08
2022-09-06T21:47:20.523Z,22.90
2022-09-06T21:52:23.857Z,22.74
2022-09-06T21:57:25.815Z,22.56
2022-09-06T22:02:27.907Z,22.48
2022-09-06T22:07:29.830Z,22.38
2022-09-06T22:12:31.701Z,22.32
2022-09-06T22:17:33.632Z,22.24
2022-09-06T22:22:36.126Z,22.16
2022-09-06T22:27:38.034Z,22.14
2022-09-06T22:32:40.096Z,22.13
2022-09-06T22:37:41.925Z,22.06
2022-09-06T22:42:43.690Z,22.02
2022-09-06T22:47:46.134Z,21.93
2022-09-06T22:52:48.081Z,21.84
2022-09-06T22:57:50.469Z,21.78
2022-09-06T23:02:52.458Z,21.74
2022-09-06T23:07:54.416Z,21.71
2022-09-06T23:12:57.016Z,21.71
2022-09-06T23:17:58.783Z,21.73
2022-09-06T23:23:00.708Z,21.64
2022-09-06T23:28:02.635Z,21.55
2022-09-06T23:33:04.934Z,21.53
2022-09-06T23:38:06.914Z,21.48
2022-09-06T23:43:09.053Z,21.52
2022-09-06T23:48:10.913Z,21.40
2022-09-06T23:53:14.041Z,21.46
2022-09-06T23:58:15.940Z,21.45
